Time;durP1;ratioP1;P1;durP2;ratioP2;P2;SDS_P1;SDS_P2;PMS_P1;PMS_P2;Temp;Humidity;BMP_temperature;BMP_pressure;BME280_temperature;BME280_humidity;BME280_pressure;Samples;Min_cycle;Max_cycle;Signal;HPM_P1;HPM_P2
2021/09/20 00:10:14;;;;;;;8.33;7.53;;;13.50;99.90;;;;;;5034267;22;20498;-82
2021/09/20 00:12:40;;;;;;;8.53;7.70;;;13.40;99.90;;;;;;5095311;28;20447;-82
2021/09/20 00:15:10;;;;;;;6.27;5.67;;;13.40;99.90;;;;;;5095622;28;20449;-82
2021/09/20 00:17:37;;;;;;;8.30;7.50;;;13.50;99.90;;;;;;5096128;28;21025;-81
2021/09/20 00:20:05;;;;;;;7.07;6.47;;;13.60;99.90;;;;;;5084237;28;20475;-83
2021/09/20 00:22:32;;;;;;;7.40;6.80;;;13.60;99.90;;;;;;5075465;28;20451;-82
2021/09/20 00:24:59;;;;;;;8.63;6.73;;;13.70;99.90;;;;;;5075728;28;20459;-81
2021/09/20 00:27:27;;;;;;;6.53;5.83;;;13.80;99.90;;;;;;5074998;28;20443;-82
2021/09/20 00:29:54;;;;;;;8.00;7.40;;;13.80;99.90;;;;;;5075297;28;20471;-82
2021/09/20 00:32:21;;;;;;;8.60;7.80;;;13.80;99.90;;;;;;5075270;28;20530;-83
2021/09/20 00:34:47;;;;;;;6.50;5.90;;;13.90;99.90;;;;;;5077314;28;20941;-83
2021/09/20 00:37:14;;;;;;;6.83;6.20;;;14.00;99.90;;;;;;5075644;28;20451;-83
2021/09/20 00:39:41;;;;;;;8.27;7.47;;;14.10;99.90;;;;;;5076027;28;20476;-82
2021/09/20 00:42:08;;;;;;;7.23;6.53;;;14.20;99.90;;;;;;5076178;28;20452;-81
2021/09/20 00:44:36;;;;;;;6.47;5.97;;;14.30;99.90;;;;;;5075542;28;20448;-82
2021/09/20 00:47:04;;;;;;;7.63;6.93;;;14.00;99.90;;;;;;5074638;28;20454;-82
2021/09/20 00:49:31;;;;;;;8.13;6.53;;;13.70;99.90;;;;;;5074717;28;20471;-82
2021/09/20 00:51:57;;;;;;;7.00;6.37;;;13.60;99.90;;;;;;5075203;28;20477;-83
2021/09/20 00:54:24;;;;;;;7.73;6.90;;;13.50;99.90;;;;;;5075057;28;20444;-81
2021/09/20 00:56:51;;;;;;;7.43;6.73;;;13.60;99.90;;;;;;5074271;28;20447;-83
2021/09/20 00:59:18;;;;;;;7.40;6.63;;;13.50;99.90;;;;;;5075087;28;20487;-82
2021/09/20 01:01:46;;;;;;;7.60;6.90;;;13.50;99.90;;;;;;5057837;28;20455;-83
2021/09/20 01:04:13;;;;;;;8.43;7.73;;;13.50;99.90;;;;;;5054851;28;20444;-82
2021/09/20 01:06:40;;;;;;;7.70;7.07;;;13.50;99.90;;;;;;5072513;28;20478;-82
2021/09/20 01:09:07;;;;;;;8.37;7.07;;;13.60;99.90;;;;;;5078069;28;20464;-83
2021/09/20 01:11:35;;;;;;;8.00;7.20;;;13.60;99.90;;;;;;5082611;28;20447;-82
2021/09/20 01:14:02;;;;;;;7.73;6.97;;;13.70;99.90;;;;;;5084932;28;20443;-83
2021/09/20 01:16:29;;;;;;;8.10;6.53;;;13.70;99.90;;;;;;5079932;28;20676;-83
2021/09/20 01:18:57;;;;;;;7.03;6.40;;;13.80;99.90;;;;;;5075638;28;20486;-83
2021/09/20 01:21:23;;;;;;;8.10;7.30;;;13.90;99.90;;;;;;5075028;28;20455;-83
2021/09/20 01:23:51;;;;;;;6.53;5.93;;;14.00;99.90;;;;;;5075545;28;20456;-83
2021/09/20 01:26:18;;;;;;;9.00;8.10;;;14.10;99.90;;;;;;5069513;28;20451;-83
2021/09/20 01:28:45;;;;;;;6.10;5.30;;;14.10;99.90;;;;;;5075919;28;20458;-82
2021/09/20 01:31:12;;;;;;;6.83;6.27;;;14.20;99.90;;;;;;5065589;28;20456;-82
2021/09/20 01:33:39;;;;;;;7.50;6.83;;;14.20;99.90;;;;;;5055065;28;20922;-83
2021/09/20 01:36:06;;;;;;;8.30;7.47;;;14.00;99.90;;;;;;5062662;28;20458;-82
2021/09/20 01:38:32;;;;;;;7.10;6.40;;;13.90;99.90;;;;;;5076708;28;20507;-83
2021/09/20 01:41:00;;;;;;;7.50;6.70;;;13.90;99.90;;;;;;5069586;28;20472;-83
2021/09/20 01:43:27;;;;;;;8.43;7.13;;;14.00;99.90;;;;;;5055830;28;20819;-82
2021/09/20 01:45:54;;;;;;;7.40;6.70;;;13.80;99.90;;;;;;5055502;28;20456;-82
2021/09/20 01:48:21;;;;;;;8.00;7.20;;;13.70;99.90;;;;;;5057118;28;20946;-82
2021/09/20 01:50:48;;;;;;;8.00;7.30;;;13.80;99.90;;;;;;5065357;28;20507;-83
2021/09/20 01:53:16;;;;;;;7.10;6.40;;;13.70;99.90;;;;;;5079251;28;20461;-82
2021/09/20 01:55:43;;;;;;;7.10;6.40;;;13.60;99.90;;;;;;5079651;28;20455;-82
2021/09/20 01:58:12;;;;;;;8.37;7.20;;;13.50;99.90;;;;;;5079634;28;20489;-83
2021/09/20 02:00:43;;;;;;;8.07;6.50;;;13.50;99.90;;;;;;5078784;28;20470;-82
2021/09/20 02:03:11;;;;;;;7.70;6.90;;;13.40;99.90;;;;;;5078096;28;20451;-81
2021/09/20 02:05:38;;;;;;;9.67;7.17;;;13.50;99.90;;;;;;5062293;28;20448;-82
2021/09/20 02:08:05;;;;;;;8.80;8.00;;;13.40;99.90;;;;;;5058679;28;20448;-83
2021/09/20 02:10:31;;;;;;;7.20;6.60;;;13.40;99.90;;;;;;5058794;28;21030;-82
2021/09/20 02:12:58;;;;;;;7.70;7.00;;;13.50;99.90;;;;;;5077874;28;20459;-80
2021/09/20 02:15:26;;;;;;;8.60;7.47;;;13.50;99.90;;;;;;5074987;28;20431;-83
2021/09/20 02:17:53;;;;;;;7.63;7.00;;;13.50;99.90;;;;;;5077545;28;20467;-81
2021/09/20 02:20:20;;;;;;;7.30;5.97;;;13.50;99.90;;;;;;5076085;28;20805;-82
2021/09/20 02:22:46;;;;;;;8.80;8.00;;;13.50;99.90;;;;;;5077552;28;20435;-83
2021/09/20 02:25:14;;;;;;;7.30;6.60;;;13.50;99.90;;;;;;5076618;28;20526;-83
2021/09/20 02:27:40;;;;;;;10.03;7.93;;;13.40;99.90;;;;;;5077658;28;20538;-82
2021/09/20 02:30:08;;;;;;;7.70;6.03;;;13.40;99.90;;;;;;5077655;28;20841;-83
2021/09/20 02:32:37;;;;;;;6.87;6.17;;;13.50;99.90;;;;;;5077757;28;20521;-83
2021/09/20 02:35:05;;;;;;;6.93;6.33;;;13.60;99.90;;;;;;5078080;28;20458;-83
2021/09/20 02:37:32;;;;;;;8.20;6.70;;;13.60;99.90;;;;;;5077976;28;20442;-82
2021/09/20 02:39:59;;;;;;;7.47;6.77;;;13.60;99.90;;;;;;5077450;28;21209;-82
2021/09/20 02:42:25;;;;;;;8.53;7.73;;;13.60;99.90;;;;;;5078417;28;20451;-82
2021/09/20 02:44:52;;;;;;;6.93;6.33;;;13.50;99.90;;;;;;5078388;28;20967;-82
2021/09/20 02:47:19;;;;;;;8.77;7.87;;;13.60;99.90;;;;;;5078019;28;20448;-83
2021/09/20 02:49:47;;;;;;;10.07;7.27;;;13.60;99.90;;;;;;5078008;28;20471;-82
2021/09/20 02:52:14;;;;;;;7.23;6.60;;;13.50;99.90;;;;;;5078027;28;20455;-82
2021/09/20 02:54:40;;;;;;;8.30;6.73;;;13.50;99.90;;;;;;5078195;28;20812;-81
2021/09/20 02:57:07;;;;;;;7.00;6.17;;;13.60;99.90;;;;;;5077366;28;20451;-83
2021/09/20 02:59:34;;;;;;;7.60;7.00;;;13.70;99.90;;;;;;5077843;28;20857;-82
2021/09/20 03:02:01;;;;;;;7.10;6.33;;;13.70;99.90;;;;;;5078169;28;20971;-82
2021/09/20 03:04:27;;;;;;;6.83;6.07;;;13.90;99.90;;;;;;5077809;28;20459;-83
2021/09/20 03:06:55;;;;;;;7.60;6.80;;;13.90;99.90;;;;;;5077899;28;20455;-83
2021/09/20 03:09:22;;;;;;;7.23;6.60;;;14.00;99.90;;;;;;5077429;28;20478;-83
2021/09/20 03:11:49;;;;;;;8.00;6.77;;;13.90;99.90;;;;;;5078410;28;20811;-83
2021/09/20 03:14:16;;;;;;;7.80;7.00;;;13.80;99.90;;;;;;5071411;28;20453;-82
2021/09/20 03:16:43;;;;;;;9.20;7.23;;;13.90;99.90;;;;;;5057694;28;20452;-83
2021/09/20 03:19:09;;;;;;;8.77;7.87;;;13.90;99.90;;;;;;5057981;28;20997;-81
2021/09/20 03:21:36;;;;;;;7.53;6.80;;;14.00;99.90;;;;;;5056692;28;20459;-83
2021/09/20 03:24:05;;;;;;;8.83;7.00;;;13.80;99.90;;;;;;5061647;28;20467;-80
2021/09/20 03:26:32;;;;;;;8.47;7.67;;;13.90;99.90;;;;;;5075792;28;20458;-82
2021/09/20 03:28:58;;;;;;;7.93;7.13;;;14.00;99.90;;;;;;5076266;28;20972;-83
2021/09/20 03:31:25;;;;;;;6.80;6.20;;;14.10;99.90;;;;;;5081153;28;20452;-81
2021/09/20 03:33:52;;;;;;;8.47;7.10;;;14.10;99.90;;;;;;5057291;28;20455;-82
2021/09/20 03:36:19;;;;;;;7.60;7.00;;;14.20;99.90;;;;;;5055540;28;20457;-82
2021/09/20 03:38:45;;;;;;;8.80;8.00;;;14.30;99.90;;;;;;5073497;28;20475;-82
2021/09/20 03:41:13;;;;;;;8.90;7.80;;;14.30;99.90;;;;;;5076158;28;20486;-83
2021/09/20 03:43:40;;;;;;;7.10;6.40;;;14.40;99.90;;;;;;5059553;28;20984;-82
2021/09/20 03:46:07;;;;;;;8.50;7.60;;;14.50;99.90;;;;;;5055804;28;20455;-83
2021/09/20 03:48:33;;;;;;;7.90;7.27;;;14.50;99.90;;;;;;5055846;28;20446;-82
2021/09/20 03:51:00;;;;;;;8.40;7.50;;;14.50;99.90;;;;;;5055974;28;20468;-82
2021/09/20 03:53:27;;;;;;;8.57;7.63;;;14.50;99.90;;;;;;5069363;28;20452;-82
2021/09/20 03:55:54;;;;;;;7.00;6.40;;;14.50;99.90;;;;;;5075584;28;20452;-82
2021/09/20 03:58:22;;;;;;;7.50;6.13;;;14.50;99.90;;;;;;5075789;28;20936;-82
2021/09/20 04:00:48;;;;;;;9.03;7.20;;;14.50;99.90;;;;;;5075577;28;20474;-82
2021/09/20 04:03:15;;;;;;;7.83;7.10;;;14.50;99.90;;;;;;5075467;28;20444;-83
2021/09/20 04:05:42;;;;;;;7.77;6.97;;;14.30;99.90;;;;;;5068606;28;20475;-83
2021/09/20 04:08:10;;;;;;;8.63;7.47;;;14.10;99.90;;;;;;5055483;28;20945;-82
2021/09/20 04:10:37;;;;;;;7.10;6.40;;;14.00;99.90;;;;;;5073073;28;20475;-82
2021/09/20 04:13:04;;;;;;;7.67;6.93;;;14.10;99.90;;;;;;5075492;28;20968;-82
2021/09/20 04:15:33;;;;;;;8.80;8.00;;;14.10;99.90;;;;;;5057252;28;20455;-81
2021/09/20 04:17:59;;;;;;;7.30;6.60;;;14.00;99.90;;;;;;5055162;28;20481;-83
2021/09/20 04:20:26;;;;;;;8.13;7.43;;;14.10;99.90;;;;;;5055274;28;20492;-83
2021/09/20 04:22:53;;;;;;;7.90;7.10;;;14.10;99.90;;;;;;5055413;28;20467;-82
2021/09/20 04:25:20;;;;;;;7.57;6.93;;;14.20;99.90;;;;;;5069741;28;20451;-82
2021/09/20 04:27:47;;;;;;;8.47;7.57;;;14.20;99.90;;;;;;5075054;28;20452;-81
2021/09/20 04:30:14;;;;;;;7.90;7.20;;;14.30;99.90;;;;;;5074728;28;20464;-83
2021/09/20 04:32:43;;;;;;;8.57;7.60;;;14.30;99.90;;;;;;5075223;28;20460;-83
2021/09/20 04:35:11;;;;;;;9.43;7.53;;;14.30;99.90;;;;;;5074832;28;20474;-84
2021/09/20 04:37:38;;;;;;;7.73;6.97;;;14.30;99.90;;;;;;5075274;28;20467;-83
2021/09/20 04:40:06;;;;;;;8.83;7.80;;;14.40;99.90;;;;;;5074877;28;20498;-81
2021/09/20 04:42:33;;;;;;;7.30;6.60;;;14.30;99.90;;;;;;5074964;28;20448;-82
2021/09/20 04:44:59;;;;;;;11.43;8.60;;;14.40;99.90;;;;;;5074811;28;20457;-83
2021/09/20 04:47:26;;;;;;;8.47;7.63;;;14.40;99.90;;;;;;5074158;28;20800;-82
2021/09/20 04:49:54;;;;;;;7.50;6.80;;;14.40;99.90;;;;;;5074907;28;20467;-82
2021/09/20 04:52:21;;;;;;;8.93;8.13;;;14.40;99.90;;;;;;5075034;28;20463;-83
2021/09/20 04:54:48;;;;;;;9.63;7.30;;;14.40;99.90;;;;;;5074793;28;20456;-82
2021/09/20 04:57:14;;;;;;;7.20;6.50;;;14.30;99.90;;;;;;5074875;28;20451;-83
2021/09/20 04:59:41;;;;;;;10.00;7.50;;;14.30;99.90;;;;;;5075013;28;20488;-82
2021/09/20 05:02:08;;;;;;;7.23;6.50;;;14.30;99.90;;;;;;5069148;28;20444;-81
2021/09/20 05:04:34;;;;;;;7.37;6.67;;;14.40;99.90;;;;;;5055283;28;21016;-82
2021/09/20 05:07:03;;;;;;;9.03;6.80;;;14.40;99.90;;;;;;5054228;28;20441;-81
2021/09/20 05:09:29;;;;;;;7.33;6.63;;;14.50;99.90;;;;;;5054351;28;20476;-82
2021/09/20 05:11:56;;;;;;;6.17;5.60;;;14.30;99.90;;;;;;5057184;28;20453;-83
2021/09/20 05:14:23;;;;;;;7.07;6.37;;;14.30;99.90;;;;;;5074439;28;20454;-83
2021/09/20 05:16:52;;;;;;;6.93;6.23;;;14.30;99.90;;;;;;5073574;28;20942;-81
2021/09/20 05:19:19;;;;;;;8.00;7.20;;;14.40;99.90;;;;;;5074087;28;20488;-82
2021/09/20 05:21:46;;;;;;;7.93;7.23;;;14.40;99.90;;;;;;5073904;28;20451;-83
2021/09/20 05:24:14;;;;;;;8.10;7.40;;;14.40;99.90;;;;;;5073527;28;20451;-83
2021/09/20 05:26:40;;;;;;;8.90;7.40;;;14.40;99.90;;;;;;5074056;28;20478;-83
2021/09/20 05:29:07;;;;;;;9.07;7.40;;;14.40;99.90;;;;;;5073856;28;20467;-84
2021/09/20 05:31:34;;;;;;;9.47;8.00;;;14.30;99.90;;;;;;5074423;28;20518;-83
2021/09/20 05:34:01;;;;;;;8.13;6.67;;;14.30;99.90;;;;;;5074127;28;20451;-82
2021/09/20 05:36:27;;;;;;;8.10;7.20;;;14.40;99.90;;;;;;5073421;28;20503;-82
2021/09/20 05:38:54;;;;;;;7.77;6.97;;;14.50;99.90;;;;;;5074412;28;20487;-82
2021/09/20 05:41:22;;;;;;;7.63;7.00;;;14.50;99.90;;;;;;5074410;28;20449;-83
2021/09/20 05:43:49;;;;;;;9.73;8.30;;;14.60;99.90;;;;;;5074267;28;20445;-81
2021/09/20 05:46:16;;;;;;;10.50;8.93;;;14.60;99.90;;;;;;5073852;28;20818;-82
2021/09/20 05:48:43;;;;;;;9.27;7.67;;;14.60;99.90;;;;;;5073497;28;20456;-83
2021/09/20 05:51:10;;;;;;;9.50;7.60;;;14.60;99.90;;;;;;5073799;28;20840;-82
2021/09/20 05:53:37;;;;;;;8.80;7.70;;;14.70;99.90;;;;;;5084537;28;20871;-80
2021/09/20 05:56:05;;;;;;;10.97;7.70;;;14.80;99.90;;;;;;5088832;28;20447;-80
2021/09/20 05:58:33;;;;;;;8.10;7.30;;;14.80;99.90;;;;;;5088435;28;20462;-81
2021/09/20 06:01:00;;;;;;;8.60;7.43;;;14.80;99.90;;;;;;5075195;28;20498;-83
2021/09/20 06:03:27;;;;;;;10.63;8.73;;;14.90;99.90;;;;;;5086914;28;20447;-84
2021/09/20 06:05:54;;;;;;;8.97;7.20;;;14.90;99.90;;;;;;5088975;28;20448;-84
2021/09/20 06:08:21;;;;;;;8.60;7.83;;;15.00;99.90;;;;;;5087590;28;20460;-83
2021/09/20 06:10:48;;;;;;;9.10;8.17;;;15.00;99.90;;;;;;5081512;28;20482;-81
2021/09/20 06:13:17;;;;;;;10.60;8.80;;;14.90;99.90;;;;;;5112244;22;20499;-84
2021/09/20 06:49:49;;;;;;;8.23;7.50;;;15.20;99.90;;;;;;4743657;30;20746;-85
2021/09/20 06:52:16;;;;;;;8.67;7.97;;;15.30;99.90;;;;;;4789687;29;20483;-82
2021/09/20 06:54:44;;;;;;;8.23;7.30;;;15.40;99.90;;;;;;5067438;28;20474;-81
2021/09/20 06:57:11;;;;;;;9.57;8.57;;;15.50;99.90;;;;;;5112927;28;20459;-82
2021/09/20 07:03:08;;;;;;;9.53;8.30;;;15.40;99.90;;;;;;5115947;28;20489;-85
2021/09/20 07:12:17;;;;;;;10.83;9.80;;;15.60;99.90;;;;;;5083578;28;20469;-86
2021/09/20 07:18:06;;;;;;;11.20;10.20;;;15.70;99.90;;;;;;5072966;28;20457;-85
2021/09/20 07:44:11;;;;;;;11.90;10.63;;;15.90;99.90;;;;;;5113859;27;20455;-86
2021/09/20 07:47:05;;;;;;;12.77;11.07;;;16.00;99.90;;;;;;5113485;28;20929;-86
2021/09/20 07:49:52;;;;;;;13.80;12.40;;;15.90;99.90;;;;;;5114671;27;20450;-86
2021/09/20 08:20:21;;;;;;;17.53;12.43;;;16.50;99.90;;;;;;5130507;27;20447;-86
2021/09/20 08:27:42;;;;;;;14.80;12.73;;;16.70;99.90;;;;;;5111346;27;20805;-86
2021/09/20 08:31:32;;;;;;;;;;;;;;;;;;;;;
2021/09/20 08:34:39;;;;;;;15.30;12.17;;;16.80;99.90;;;;;;5086345;28;20989;-86
2021/09/20 08:54:52;;;;;;;16.70;13.33;;;17.60;99.90;;;;;;5081763;28;20449;-86
2021/09/20 08:57:35;;;;;;;18.23;12.47;;;17.80;99.90;;;;;;5112672;28;20922;-86
2021/09/20 09:00:26;;;;;;;13.80;12.30;;;18.00;99.90;;;;;;5113297;28;20476;-86
2021/09/20 09:10:20;;;;;;;12.97;11.77;;;18.40;99.90;;;;;;5101078;27;20846;-86
2021/09/20 09:12:55;;;;;;;14.20;11.80;;;18.50;99.90;;;;;;5112881;27;20537;-86
2021/09/20 09:15:31;;;;;;;13.47;10.93;;;18.50;99.90;;;;;;5112696;28;20936;-86
2021/09/20 09:18:08;;;;;;;14.20;12.00;;;18.30;99.90;;;;;;5112870;28;20899;-86
2021/09/20 09:20:49;;;;;;;13.83;12.20;;;18.20;99.90;;;;;;5113073;28;20479;-86
2021/09/20 09:23:30;;;;;;;15.60;12.90;;;17.90;99.90;;;;;;5113103;27;20472;-87
2021/09/20 09:26:05;;;;;;;15.40;13.00;;;17.60;99.90;;;;;;5112244;28;20551;-86
2021/09/20 09:28:58;;;;;;;;;;;;;;;;;;;;;
2021/09/20 09:31:50;;;;;;;;;;;;;;;;;;;;;
2021/09/20 09:34:43;;;;;;;16.27;12.37;;;18.30;99.90;;;;;;5112735;28;20436;-86
2021/09/20 09:40:54;;;;;;;15.83;14.20;;;18.30;99.90;;;;;;5110454;27;20516;-86
2021/09/20 09:43:37;;;;;;;16.00;14.40;;;18.20;99.90;;;;;;5112712;28;20484;-86
2021/09/20 09:46:40;;;;;;;17.07;12.93;;;18.10;99.90;;;;;;5113381;28;20456;-86
2021/09/20 09:49:33;;;;;;;12.63;11.33;;;18.30;99.90;;;;;;5112790;28;20487;-86
2021/09/20 09:52:12;;;;;;;15.23;13.63;;;18.50;99.90;;;;;;5112401;28;20452;-87
2021/09/20 09:54:56;;;;;;;13.03;11.73;;;18.80;99.90;;;;;;5112760;28;20453;-86
2021/09/20 09:57:49;;;;;;;14.90;13.40;;;18.90;99.90;;;;;;5112180;28;20448;-86
2021/09/20 10:01:26;;;;;;;13.67;12.10;;;19.00;99.90;;;;;;5049380;28;20546;-86
2021/09/20 10:07:56;;;;;;;11.40;10.27;;;18.80;99.90;;;;;;5110164;27;20489;-86
2021/09/20 10:14:24;;;;;;;13.40;11.00;;;19.10;99.90;;;;;;5095082;28;20538;-86
2021/09/20 10:20:45;;;;;;;14.00;12.60;;;19.50;99.90;;;;;;5095364;28;20472;-86
2021/09/20 10:23:52;;;;;;;13.30;12.00;;;19.30;99.90;;;;;;5116117;28;20472;-86
2021/09/20 10:26:43;;;;;;;;;;;;;;;;;;;;;
2021/09/20 10:29:58;;;;;;;13.00;11.10;;;19.00;99.90;;;;;;5116350;28;20429;-86
2021/09/20 10:32:39;;;;;;;14.97;13.37;;;19.20;99.90;;;;;;5116226;28;20573;-86
2021/09/20 10:35:53;;;;;;;13.77;12.27;;;19.30;99.90;;;;;;5115649;28;20665;-86
2021/09/20 10:42:02;;;;;;;14.50;13.10;;;19.20;99.90;;;;;;5012576;28;21019;-86
2021/09/20 10:48:05;;;;;;;15.60;12.73;;;18.90;99.90;;;;;;5052372;28;20467;-86
2021/09/20 10:50:54;;;;;;;14.87;13.47;;;18.50;99.90;;;;;;5041450;28;20462;-86
2021/09/20 10:53:39;;;;;;;15.80;14.13;;;18.20;99.90;;;;;;5052694;28;20475;-86
2021/09/20 10:56:44;;;;;;;14.73;13.23;;;18.30;99.90;;;;;;5084826;28;20543;-86
2021/09/20 10:59:34;;;;;;;14.10;12.40;;;18.20;99.90;;;;;;5071555;28;20460;-87
2021/09/20 11:02:32;;;;;;;13.73;12.00;;;18.10;99.90;;;;;;5115262;28;20534;-86
2021/09/20 11:05:13;;;;;;;15.20;13.60;;;18.10;99.90;;;;;;5115581;28;20463;-86
2021/09/20 11:08:21;;;;;;;13.13;11.60;;;18.10;99.90;;;;;;5115592;28;20460;-87
2021/09/20 11:11:38;;;;;;;14.20;12.80;;;17.90;99.90;;;;;;5051827;28;21045;-87
2021/09/20 11:14:24;;;;;;;;;;;;;;;;;;;;;
2021/09/20 11:17:38;;;;;;;12.27;11.13;;;18.40;99.90;;;;;;5051971;28;20447;-86
2021/09/20 11:20:44;;;;;;;13.30;11.93;;;18.60;99.90;;;;;;5053105;28;20439;-88
2021/09/20 11:23:56;;;;;;;16.00;13.27;;;18.80;99.90;;;;;;5115388;28;21333;-86
2021/09/20 11:26:42;;;;;;;12.40;11.20;;;19.00;99.90;;;;;;5092140;27;20525;-86
2021/09/20 11:29:15;;;;;;;14.70;13.20;;;19.20;99.90;;;;;;5115300;28;20483;-86
2021/09/20 11:32:03;;;;;;;13.93;12.17;;;18.80;99.90;;;;;;5114544;28;20450;-86
2021/09/20 11:35:05;;;;;;;14.13;11.70;;;19.00;99.90;;;;;;5114843;27;20438;-87
2021/09/20 11:44:22;;;;;;;11.37;10.10;;;19.50;99.90;;;;;;5088732;27;20456;-88
2021/09/20 11:47:34;;;;;;;;;;;;;;;;;;;;;
2021/09/20 11:56:19;;;;;;;10.57;9.63;;;19.90;99.90;;;;;;5094312;27;20569;-86
2021/09/20 11:59:18;;;;;;;14.40;12.83;;;20.10;99.90;;;;;;5114417;27;21015;-86
2021/09/20 12:05:43;;;;;;;12.70;11.40;;;19.70;99.90;;;;;;5050829;28;20463;-87
2021/09/20 12:08:33;;;;;;;12.57;11.47;;;19.70;99.90;;;;;;5093911;28;20476;-86
2021/09/20 12:11:00;;;;;;;12.43;11.33;;;19.80;99.90;;;;;;5093432;28;20448;-86
2021/09/20 12:14:39;;;;;;;12.53;11.33;;;20.00;99.90;;;;;;5105051;22;20499;-87
2021/09/20 12:18:13;;;;;;;11.43;10.53;;;20.20;99.90;;;;;;5050401;28;20456;-86
2021/09/20 12:35:13;;;;;;;11.97;10.43;;;20.50;99.60;;;;;;4991125;28;20523;-86
2021/09/20 12:48:30;;;;;;;12.00;10.90;;;19.10;99.60;;;;;;4978958;28;21011;-87
2021/09/20 12:51:06;;;;;;;12.80;10.70;;;18.90;99.90;;;;;;4995671;28;20449;-87
2021/09/20 12:53:48;;;;;;;12.60;11.30;;;19.10;99.90;;;;;;5072628;28;20478;-87
2021/09/20 12:56:27;;;;;;;13.57;11.83;;;19.00;99.90;;;;;;5072188;28;20859;-86
2021/09/20 12:59:18;;;;;;;12.23;10.93;;;18.80;99.90;;;;;;5072595;28;20999;-86
2021/09/20 13:02:30;;;;;;;12.97;9.43;;;19.10;99.90;;;;;;5071962;28;20487;-87
2021/09/20 13:11:43;;;;;;;10.20;9.20;;;20.20;99.70;;;;;;5071785;28;20940;-86
2021/09/20 13:14:28;;;;;;;10.50;9.40;;;20.70;99.90;;;;;;5072278;28;20484;-87
2021/09/20 13:23:45;;;;;;;9.90;9.00;;;23.60;95.90;;;;;;5070874;28;20459;-87
2021/09/20 13:26:42;;;;;;;8.87;8.07;;;24.50;93.90;;;;;;5072206;28;20451;-87
2021/09/20 13:29:21;;;;;;;8.43;7.73;;;25.70;92.80;;;;;;5071894;28;20454;-87
2021/09/20 13:32:24;;;;;;;9.30;8.50;;;26.90;90.10;;;;;;5072233;28;20472;-88
2021/09/20 13:37:42;;;;;;;8.20;7.60;;;27.60;85.50;;;;;;5068558;28;20495;-88
2021/09/20 13:40:14;;;;;;;9.27;8.47;;;27.70;82.60;;;;;;5075097;28;20531;-88
2021/09/20 13:42:49;;;;;;;8.07;7.47;;;27.90;80.80;;;;;;5084760;28;20561;-87
2021/09/20 13:45:20;;;;;;;9.47;8.67;;;27.60;80.60;;;;;;5079167;28;20455;-88
2021/09/20 13:47:55;;;;;;;9.37;8.50;;;26.70;77.80;;;;;;5076567;28;20463;-87
2021/09/20 13:50:24;;;;;;;9.30;8.50;;;25.70;78.80;;;;;;5076026;28;20512;-88
2021/09/20 13:52:52;;;;;;;9.47;8.77;;;24.80;81.80;;;;;;5076187;28;20479;-88
2021/09/20 13:55:20;;;;;;;9.40;8.50;;;24.30;83.70;;;;;;5075709;28;20489;-88
2021/09/20 13:57:49;;;;;;;9.37;8.53;;;23.80;85.10;;;;;;5076269;28;20451;-87
2021/09/20 14:00:17;;;;;;;8.73;8.03;;;23.50;88.50;;;;;;5076112;28;20449;-87
2021/09/20 14:02:46;;;;;;;8.73;7.90;;;23.40;89.40;;;;;;5075886;28;21018;-87
2021/09/20 14:05:15;;;;;;;8.63;7.93;;;23.30;88.70;;;;;;5075637;28;20500;-87
2021/09/20 14:07:43;;;;;;;9.13;8.33;;;23.10;89.20;;;;;;5075770;28;20457;-88
2021/09/20 14:10:17;;;;;;;8.47;7.77;;;22.40;89.80;;;;;;5075801;28;20456;-87
2021/09/20 14:12:47;;;;;;;8.07;7.40;;;22.20;91.20;;;;;;5075660;28;20847;-87
2021/09/20 14:15:15;;;;;;;8.40;7.60;;;22.20;91.30;;;;;;5075162;28;21168;-87
2021/09/20 14:17:44;;;;;;;7.53;6.83;;;22.40;92.20;;;;;;5075783;28;20548;-88
2021/09/20 14:20:14;;;;;;;7.80;7.10;;;22.40;91.70;;;;;;5075467;28;20440;-87
2021/09/20 14:22:42;;;;;;;8.80;8.10;;;22.30;90.50;;;;;;5075322;28;20485;-87
2021/09/20 14:25:11;;;;;;;7.47;6.77;;;22.40;90.90;;;;;;5075128;28;20452;-87
2021/09/20 14:27:39;;;;;;;7.73;7.03;;;22.50;91.00;;;;;;5075126;28;20449;-87
2021/09/20 14:30:10;;;;;;;6.83;6.17;;;22.60;91.40;;;;;;5075470;28;20938;-87
2021/09/20 14:32:37;;;;;;;7.50;6.80;;;22.60;91.00;;;;;;5074901;28;20494;-87
2021/09/20 14:35:13;;;;;;;6.13;5.60;;;22.60;90.30;;;;;;5074900;28;20518;-87
2021/09/20 14:37:44;;;;;;;7.87;7.17;;;21.90;87.60;;;;;;5075053;28;20488;-87
2021/09/20 14:40:16;;;;;;;7.77;7.07;;;21.40;90.30;;;;;;5075217;28;20465;-86
2021/09/20 14:42:44;;;;;;;6.67;6.00;;;21.20;90.30;;;;;;5074999;28;20473;-87
2021/09/20 14:45:23;;;;;;;7.00;6.33;;;20.90;90.50;;;;;;5074793;28;20476;-87
2021/09/20 14:47:51;;;;;;;7.43;6.33;;;20.50;91.70;;;;;;5075283;28;20417;-87
2021/09/20 14:50:20;;;;;;;7.37;6.70;;;20.40;92.30;;;;;;5074648;28;20456;-87
2021/09/20 14:52:48;;;;;;;7.93;7.23;;;20.30;92.90;;;;;;5074591;28;20488;-87
2021/09/20 14:55:16;;;;;;;8.33;7.53;;;20.30;93.10;;;;;;5074067;28;20461;-86
2021/09/20 14:57:45;;;;;;;10.30;6.67;;;20.00;93.60;;;;;;5074954;28;20447;-87
2021/09/20 15:00:18;;;;;;;8.07;7.27;;;20.10;93.80;;;;;;5074641;28;20948;-87
2021/09/20 15:02:47;;;;;;;9.13;8.33;;;20.00;93.70;;;;;;5074718;28;20534;-87
2021/09/20 15:05:16;;;;;;;9.60;8.80;;;19.90;93.80;;;;;;5074569;28;20816;-87
2021/09/20 15:07:44;;;;;;;10.00;9.00;;;19.60;94.70;;;;;;5074702;28;20547;-87
2021/09/20 15:10:14;;;;;;;8.53;7.83;;;19.50;95.50;;;;;;5074806;28;20537;-87
2021/09/20 15:12:43;;;;;;;9.83;9.00;;;19.50;96.00;;;;;;5074236;28;20490;-86
2021/09/20 15:15:13;;;;;;;9.13;8.40;;;19.40;96.10;;;;;;5074374;28;20522;-89
2021/09/20 15:17:40;;;;;;;9.40;8.53;;;19.10;96.50;;;;;;5074304;28;20451;-87
2021/09/20 15:20:10;;;;;;;9.27;8.50;;;19.20;97.00;;;;;;5074326;28;20522;-87
2021/09/20 15:22:41;;;;;;;9.03;8.43;;;19.20;97.00;;;;;;5074304;28;20528;-87
2021/09/20 15:25:10;;;;;;;8.97;8.10;;;19.20;97.00;;;;;;5074096;28;20882;-87
2021/09/20 15:27:38;;;;;;;10.03;9.23;;;19.20;97.30;;;;;;5074407;28;20933;-86
2021/09/20 15:30:08;;;;;;;10.80;9.80;;;19.00;97.10;;;;;;5074541;28;20447;-87
2021/09/20 15:36:20;;;;;;;12.60;9.63;;;19.00;97.50;;;;;;5071393;28;20446;-87
2021/09/20 15:41:50;;;;;;;10.03;9.03;;;18.90;97.50;;;;;;5073802;28;20533;-87
2021/09/20 15:44:23;;;;;;;12.63;9.20;;;18.70;97.30;;;;;;5074002;28;20470;-87
2021/09/20 15:47:09;;;;;;;11.07;10.00;;;18.60;97.90;;;;;;5055153;28;20543;-87
2021/09/20 15:49:36;;;;;;;9.83;8.93;;;18.50;98.10;;;;;;5074011;28;20460;-86
2021/09/20 15:52:06;;;;;;;11.70;10.50;;;18.30;98.20;;;;;;5073541;28;20503;-87
2021/09/20 15:54:41;;;;;;;9.40;8.60;;;18.30;98.60;;;;;;5074206;28;20453;-87
2021/09/20 15:57:20;;;;;;;8.70;7.93;;;18.50;98.80;;;;;;5073812;28;20930;-87
2021/09/20 15:59:50;;;;;;;10.90;9.80;;;18.60;98.90;;;;;;5089875;28;20485;-87
2021/09/20 16:02:17;;;;;;;10.53;9.53;;;18.50;98.70;;;;;;5092115;28;20462;-87
2021/09/20 16:04:46;;;;;;;11.97;10.87;;;18.50;98.90;;;;;;5074049;28;20493;-87
2021/09/20 16:07:19;;;;;;;9.93;9.10;;;18.50;98.50;;;;;;5072971;28;20461;-86
2021/09/20 16:10:01;;;;;;;10.57;9.63;;;18.50;98.60;;;;;;5073680;28;20461;-87
2021/09/20 16:12:31;;;;;;;10.10;9.30;;;18.50;98.80;;;;;;5073288;28;20904;-87
2021/09/20 16:14:58;;;;;;;11.03;10.03;;;18.40;98.70;;;;;;5073444;28;20462;-87
2021/09/20 16:17:32;;;;;;;9.67;8.70;;;18.50;99.10;;;;;;5073311;28;20457;-87
2021/09/20 16:19:59;;;;;;;10.20;9.20;;;18.40;98.90;;;;;;5073473;28;20455;-86
2021/09/20 16:25:21;;;;;;;10.53;9.53;;;18.10;99.40;;;;;;5072330;28;20464;-87
2021/09/20 16:27:50;;;;;;;10.40;9.40;;;18.20;99.50;;;;;;5074530;28;20464;-85
2021/09/20 16:30:18;;;;;;;9.87;8.97;;;18.20;99.60;;;;;;5073994;28;20452;-86
2021/09/20 16:32:45;;;;;;;10.47;9.53;;;18.20;99.80;;;;;;5073566;28;20500;-85
2021/09/20 16:35:13;;;;;;;10.20;9.30;;;18.20;99.80;;;;;;5059662;28;20460;-87
2021/09/20 16:37:45;;;;;;;9.73;8.93;;;18.10;99.80;;;;;;5072346;28;20458;-87
2021/09/20 16:40:27;;;;;;;10.50;9.60;;;18.00;99.90;;;;;;5072665;28;20817;-87
2021/09/20 16:43:05;;;;;;;10.33;9.33;;;17.90;99.90;;;;;;5072599;28;20472;-86
2021/09/20 16:45:36;;;;;;;10.07;9.17;;;17.70;99.90;;;;;;5072252;28;20927;-87
2021/09/20 16:48:04;;;;;;;10.77;9.67;;;17.60;99.90;;;;;;5049974;28;20815;-87
2021/09/20 16:50:31;;;;;;;10.27;9.30;;;17.40;99.90;;;;;;5071910;28;20442;-85
2021/09/20 16:52:59;;;;;;;10.67;9.57;;;17.30;99.90;;;;;;5071948;28;20488;-86
2021/09/20 16:55:26;;;;;;;9.70;8.77;;;17.20;99.90;;;;;;5071832;28;20450;-85
2021/09/20 16:57:53;;;;;;;10.50;9.20;;;17.20;99.90;;;;;;5071591;28;20457;-86
2021/09/20 17:00:21;;;;;;;10.97;9.97;;;17.30;99.90;;;;;;5071850;28;20458;-85
2021/09/20 17:02:47;;;;;;;12.40;10.60;;;17.00;99.90;;;;;;5071489;28;20472;-85
2021/09/20 17:05:14;;;;;;;11.40;10.20;;;17.10;99.90;;;;;;5071278;28;20456;-86
2021/09/20 17:07:41;;;;;;;11.90;10.63;;;16.90;99.90;;;;;;5071723;28;20825;-86